Time;durP1;ratioP1;P1;durP2;ratioP2;P2;SDS_P1;SDS_P2;PMS_P1;PMS_P2;Temp;Humidity;BMP_temperature;BMP_pressure;BME280_temperature;BME280_humidity;BME280_pressure;Samples;Min_cycle;Max_cycle;Signal;HPM_P1;HPM_P2
2021/08/27 00:00:21;;;;;;;13.02;8.32;;;25.40;46.50;;;;;;4165850;28;20042;-57
2021/08/27 00:02:23;;;;;;;15.85;8.70;;;25.50;46.50;;;;;;4165807;28;20053;-57
2021/08/27 00:04:26;;;;;;;17.27;9.10;;;25.40;46.60;;;;;;4165848;28;20049;-57
2021/08/27 00:06:28;;;;;;;15.13;8.50;;;25.40;46.70;;;;;;4165592;28;20052;-57
2021/08/27 00:08:30;;;;;;;19.15;9.00;;;25.40;46.70;;;;;;4165785;28;20042;-57
2021/08/27 00:10:32;;;;;;;18.55;8.73;;;25.40;46.70;;;;;;4165137;28;20069;-56
2021/08/27 00:12:35;;;;;;;18.05;9.18;;;25.40;46.70;;;;;;4165674;28;20110;-57
2021/08/27 00:14:37;;;;;;;14.27;7.53;;;25.40;46.80;;;;;;4165751;28;20041;-57
2021/08/27 00:16:40;;;;;;;16.92;8.23;;;25.40;46.80;;;;;;4165139;28;20073;-57
2021/08/27 00:18:42;;;;;;;11.25;7.72;;;25.40;46.80;;;;;;4164581;28;20038;-57
2021/08/27 00:20:44;;;;;;;15.88;8.38;;;25.30;46.90;;;;;;4164845;28;20038;-57
2021/08/27 00:22:46;;;;;;;14.90;8.35;;;25.30;47.10;;;;;;4164780;28;20100;-57
2021/08/27 00:24:48;;;;;;;15.32;9.00;;;25.30;47.00;;;;;;4164643;28;20073;-56
2021/08/27 00:26:50;;;;;;;17.85;9.25;;;25.20;47.00;;;;;;4164735;28;20045;-56
2021/08/27 00:28:52;;;;;;;15.38;9.20;;;25.30;47.10;;;;;;4164742;28;20076;-58
2021/08/27 00:30:58;;;;;;;13.48;7.88;;;25.20;47.20;;;;;;4164732;28;20048;-56
2021/08/27 00:33:00;;;;;;;14.23;8.82;;;25.20;47.20;;;;;;4164624;28;20072;-56
2021/08/27 00:35:05;;;;;;;13.27;7.93;;;25.20;47.20;;;;;;4164664;28;20101;-57
2021/08/27 00:37:07;;;;;;;14.80;8.30;;;25.20;47.30;;;;;;4164762;28;20101;-57
2021/08/27 00:39:09;;;;;;;13.30;8.48;;;25.20;47.30;;;;;;4164547;28;20044;-57
2021/08/27 00:41:12;;;;;;;14.05;8.45;;;25.10;47.30;;;;;;4164336;28;20056;-55
2021/08/27 00:43:14;;;;;;;15.00;9.10;;;25.10;47.40;;;;;;4164256;28;20046;-56
2021/08/27 00:45:16;;;;;;;17.35;8.48;;;25.10;47.40;;;;;;4164213;28;20096;-56
2021/08/27 00:47:18;;;;;;;15.45;9.23;;;25.10;47.40;;;;;;4164580;28;20053;-56
2021/08/27 00:49:20;;;;;;;17.20;7.78;;;25.00;47.50;;;;;;4164559;28;20069;-56
2021/08/27 00:51:22;;;;;;;14.30;8.57;;;25.00;47.50;;;;;;4164288;28;20097;-55
2021/08/27 00:53:24;;;;;;;14.27;9.00;;;25.00;47.60;;;;;;4164396;28;20434;-56
2021/08/27 00:55:26;;;;;;;14.15;8.13;;;25.00;47.60;;;;;;4164416;28;20077;-56
2021/08/27 00:57:28;;;;;;;13.07;8.35;;;25.00;47.60;;;;;;4164558;28;20041;-56
2021/08/27 00:59:30;;;;;;;15.77;7.78;;;25.00;47.70;;;;;;4164611;28;20093;-57
2021/08/27 01:01:32;;;;;;;11.38;7.40;;;24.90;47.80;;;;;;4164286;28;20490;-57
2021/08/27 01:03:35;;;;;;;13.05;8.68;;;25.00;47.80;;;;;;4164302;28;20061;-56
2021/08/27 01:05:45;;;;;;;15.63;8.18;;;24.90;47.90;;;;;;4162287;28;20050;-57
2021/08/27 01:08:02;;;;;;;13.07;7.43;;;25.00;47.90;;;;;;4164331;28;20101;-56
2021/08/27 01:10:22;;;;;;;15.25;7.97;;;24.90;47.90;;;;;;4164356;28;20050;-58
2021/08/27 01:12:33;;;;;;;11.95;7.70;;;24.90;48.00;;;;;;4164260;28;20050;-56
2021/08/27 01:14:59;;;;;;;11.65;6.70;;;24.90;48.00;;;;;;4164316;28;20045;-57
2021/08/27 01:17:24;;;;;;;11.32;7.30;;;24.90;48.00;;;;;;4166253;28;20469;-56
2021/08/27 01:20:00;;;;;;;14.88;8.50;;;24.90;48.20;;;;;;4164400;28;20050;-57
2021/08/27 01:22:25;;;;;;;12.75;8.00;;;24.90;48.20;;;;;;4165481;28;20042;-56
2021/08/27 01:24:29;;;;;;;11.25;7.53;;;24.90;48.30;;;;;;4167444;28;20056;-56
2021/08/27 01:26:38;;;;;;;10.55;7.03;;;24.80;48.40;;;;;;4167468;28;20052;-57
2021/08/27 01:28:46;;;;;;;16.65;7.85;;;24.90;48.40;;;;;;4167448;28;20038;-56
2021/08/27 01:30:54;;;;;;;12.05;7.05;;;24.80;48.40;;;;;;4167312;28;20034;-56
2021/08/27 01:33:24;;;;;;;16.25;7.85;;;24.80;48.50;;;;;;4167190;28;20124;-54
2021/08/27 01:35:29;;;;;;;14.85;7.40;;;24.80;48.60;;;;;;4167414;28;20110;-57
2021/08/27 01:37:33;;;;;;;11.85;7.43;;;24.80;48.50;;;;;;4167324;28;20048;-57
2021/08/27 01:39:39;;;;;;;13.25;7.55;;;24.80;48.60;;;;;;4167114;28;20052;-57
2021/08/27 01:41:44;;;;;;;18.15;9.18;;;24.80;48.60;;;;;;4167225;28;20097;-57
2021/08/27 01:43:48;;;;;;;18.48;9.63;;;24.80;48.70;;;;;;4167024;28;20102;-56
2021/08/27 01:45:57;;;;;;;19.00;9.02;;;24.70;48.80;;;;;;4167242;28;20056;-57
2021/08/27 01:48:00;;;;;;;20.05;8.82;;;24.70;48.70;;;;;;4167050;28;20045;-57
2021/08/27 01:50:04;;;;;;;17.83;8.40;;;24.80;48.70;;;;;;4167072;28;20074;-57
2021/08/27 01:52:08;;;;;;;13.43;8.13;;;24.80;48.80;;;;;;4167028;28;20145;-56
2021/08/27 01:54:13;;;;;;;19.50;8.85;;;24.70;48.70;;;;;;4167107;28;20070;-56
2021/08/27 01:56:16;;;;;;;21.15;8.63;;;24.70;48.70;;;;;;4167078;28;20309;-56
2021/08/27 01:58:18;;;;;;;16.30;7.13;;;24.70;48.60;;;;;;4167054;28;20045;-57
2021/08/27 02:00:22;;;;;;;13.10;8.18;;;24.70;48.70;;;;;;4166848;28;20097;-57
2021/08/27 02:02:26;;;;;;;10.73;8.05;;;24.70;48.70;;;;;;4166913;28;20053;-56
2021/08/27 02:04:31;;;;;;;14.43;8.50;;;24.60;48.80;;;;;;4166761;28;20056;-56
2021/08/27 02:06:33;;;;;;;;;;;24.60;48.80;;;;;;4167239;28;20069;-56
2021/08/27 02:08:37;;;;;;;12.98;6.97;;;24.60;48.80;;;;;;4166758;28;19932;-57
2021/08/27 02:10:39;;;;;;;19.20;8.20;;;24.60;48.70;;;;;;4166635;28;20037;-57
2021/08/27 02:12:42;;;;;;;13.10;7.85;;;24.60;48.70;;;;;;4182247;28;20076;-57
2021/08/27 02:14:45;;;;;;;15.82;8.68;;;24.60;48.70;;;;;;4166825;28;20049;-57
2021/08/27 02:16:47;;;;;;;12.20;7.13;;;24.60;48.70;;;;;;4182196;28;20042;-57
2021/08/27 02:18:50;;;;;;;13.93;7.35;;;24.60;48.60;;;;;;4166614;28;20073;-55
2021/08/27 02:20:53;;;;;;;11.77;8.30;;;24.60;48.70;;;;;;4166446;28;20098;-53
2021/08/27 02:22:56;;;;;;;14.35;8.20;;;24.60;48.60;;;;;;4166550;28;20121;-56
2021/08/27 02:25:04;;;;;;;13.75;7.70;;;24.50;48.60;;;;;;4166624;28;20998;-56
2021/08/27 02:27:07;;;;;;;15.85;8.38;;;24.50;48.60;;;;;;4166579;28;20046;-56
2021/08/27 02:29:11;;;;;;;17.77;8.77;;;24.50;48.60;;;;;;4166670;28;20069;-55
2021/08/27 02:31:14;;;;;;;13.10;7.97;;;24.50;48.60;;;;;;4166441;28;20101;-56
2021/08/27 02:33:17;;;;;;;15.65;8.10;;;24.50;48.60;;;;;;4165493;28;20073;-56
2021/08/27 02:35:20;;;;;;;13.90;7.72;;;24.50;48.50;;;;;;4165991;28;20073;-56
2021/08/27 02:37:23;;;;;;;14.02;8.32;;;24.50;48.60;;;;;;4166038;28;20084;-56
2021/08/27 02:39:29;;;;;;;15.50;7.80;;;24.50;48.60;;;;;;4166257;28;20070;-56
2021/08/27 02:41:31;;;;;;;11.27;7.30;;;24.50;48.60;;;;;;4166217;28;20065;-56
2021/08/27 02:43:33;;;;;;;13.52;6.88;;;24.50;48.60;;;;;;4166127;28;20050;-56
2021/08/27 02:45:35;;;;;;;13.45;6.40;;;24.50;48.60;;;;;;4165907;28;20122;-56
2021/08/27 02:47:37;;;;;;;14.45;7.15;;;24.50;48.60;;;;;;4166257;28;20041;-56
2021/08/27 02:49:40;;;;;;;11.57;7.35;;;24.40;48.50;;;;;;4165960;28;20070;-56
2021/08/27 02:51:49;;;;;;;7.97;6.45;;;24.40;48.60;;;;;;4166114;28;20045;-56
2021/08/27 02:53:54;;;;;;;13.52;6.72;;;24.40;48.60;;;;;;4166119;28;20098;-58
2021/08/27 02:56:03;;;;;;;15.98;8.02;;;24.40;48.70;;;;;;4166138;28;20052;-58
2021/08/27 02:58:26;;;;;;;10.57;6.55;;;24.40;48.70;;;;;;4166112;28;20048;-58
2021/08/27 03:00:33;;;;;;;15.93;6.90;;;24.40;48.70;;;;;;4166010;28;20072;-58
2021/08/27 03:02:36;;;;;;;16.35;6.97;;;24.40;48.70;;;;;;4166032;28;20049;-58
2021/08/27 03:04:50;;;;;;;17.25;7.38;;;24.40;48.70;;;;;;4165714;28;20093;-58
2021/08/27 03:07:05;;;;;;;13.75;7.85;;;24.40;48.70;;;;;;4165928;28;20120;-56
2021/08/27 03:09:09;;;;;;;14.70;6.68;;;24.40;48.80;;;;;;4165724;28;20046;-58
2021/08/27 03:11:16;;;;;;;;;;;24.30;48.70;;;;;;4166306;28;20894;-56
2021/08/27 03:13:40;;;;;;;17.17;8.05;;;24.40;48.70;;;;;;4165738;28;19921;-58
2021/08/27 03:16:02;;;;;;;15.68;8.73;;;24.40;48.70;;;;;;4165860;28;20098;-58
2021/08/27 03:18:27;;;;;;;17.33;9.15;;;24.40;48.50;;;;;;4165654;28;20045;-58
2021/08/27 03:20:41;;;;;;;16.33;9.27;;;24.30;48.40;;;;;;4165617;28;20106;-58
2021/08/27 03:22:52;;;;;;;13.13;7.93;;;24.30;48.20;;;;;;4165880;28;20101;-58
2021/08/27 03:25:04;;;;;;;15.80;8.88;;;24.30;48.10;;;;;;4165510;28;20042;-58
2021/08/27 03:27:20;;;;;;;12.27;7.88;;;24.20;47.90;;;;;;4165582;28;20166;-56
2021/08/27 03:29:23;;;;;;;17.10;9.23;;;24.20;48.00;;;;;;4165541;28;20038;-56
2021/08/27 03:31:27;;;;;;;20.30;8.73;;;24.20;48.00;;;;;;4165493;28;20054;-56
2021/08/27 03:33:29;;;;;;;14.70;8.00;;;24.20;48.10;;;;;;4180534;28;20057;-56
2021/08/27 03:35:31;;;;;;;18.58;9.02;;;24.20;48.20;;;;;;4165308;28;20141;-55
2021/08/27 03:37:34;;;;;;;17.05;8.18;;;24.10;48.20;;;;;;4165340;28;20101;-55
2021/08/27 03:39:36;;;;;;;17.23;7.90;;;24.20;48.30;;;;;;4165361;28;20098;-55
2021/08/27 03:41:41;;;;;;;17.67;7.47;;;24.20;48.30;;;;;;4165497;28;20088;-56
2021/08/27 03:43:45;;;;;;;11.80;7.45;;;24.20;48.30;;;;;;4165378;28;20084;-54
2021/08/27 03:45:52;;;;;;;18.58;7.50;;;24.20;48.30;;;;;;4164667;28;20052;-55
2021/08/27 03:47:54;;;;;;;18.35;8.13;;;24.20;48.40;;;;;;4180893;28;20052;-54
2021/08/27 03:49:56;;;;;;;17.70;6.85;;;24.10;48.50;;;;;;4164911;28;20046;-56
2021/08/27 03:52:00;;;;;;;19.33;7.05;;;24.10;48.60;;;;;;4165175;28;20125;-56
2021/08/27 03:54:02;;;;;;;12.43;7.00;;;24.10;48.70;;;;;;4165126;28;20041;-55
2021/08/27 03:56:08;;;;;;;15.73;7.50;;;24.20;48.70;;;;;;4165017;28;20102;-55
2021/08/27 03:58:13;;;;;;;17.55;7.90;;;24.10;48.80;;;;;;4164081;28;20046;-56
2021/08/27 04:00:19;;;;;;;17.98;7.88;;;24.10;48.80;;;;;;4165083;28;20045;-54
2021/08/27 04:02:21;;;;;;;12.75;7.32;;;24.10;48.90;;;;;;4180444;28;20038;-56
2021/08/27 04:04:24;;;;;;;13.48;7.35;;;24.10;49.00;;;;;;4164887;28;20076;-56
2021/08/27 04:06:26;;;;;;;17.35;8.20;;;24.10;49.10;;;;;;4164183;28;20519;-56
2021/08/27 04:08:28;;;;;;;17.58;8.23;;;24.10;49.10;;;;;;4164940;28;20049;-56
2021/08/27 04:10:30;;;;;;;11.52;8.48;;;24.10;49.10;;;;;;4164839;28;20046;-55
2021/08/27 04:12:33;;;;;;;15.52;7.40;;;24.10;49.10;;;;;;4164964;28;20042;-55
2021/08/27 04:14:35;;;;;;;16.70;8.40;;;24.20;49.20;;;;;;4164678;28;20049;-55
2021/08/27 04:16:46;;;;;;;11.10;7.07;;;24.10;49.30;;;;;;4164963;28;20072;-55
2021/08/27 04:18:49;;;;;;;18.67;7.85;;;24.10;49.20;;;;;;4164644;28;20120;-54
2021/08/27 04:20:51;;;;;;;11.30;7.40;;;24.20;49.20;;;;;;4164770;28;20093;-55
2021/08/27 04:22:53;;;;;;;11.55;7.70;;;24.20;49.30;;;;;;4164824;28;20060;-56
2021/08/27 04:24:55;;;;;;;12.63;7.28;;;24.10;49.30;;;;;;4164683;28;20048;-55
2021/08/27 04:26:57;;;;;;;12.07;7.22;;;24.10;49.50;;;;;;4164504;28;20041;-54
2021/08/27 04:28:59;;;;;;;11.63;7.38;;;24.10;49.50;;;;;;4164573;28;20121;-54
2021/08/27 04:31:01;;;;;;;13.95;7.45;;;24.10;49.50;;;;;;4164452;28;20065;-55
2021/08/27 04:33:03;;;;;;;15.13;6.88;;;24.10;49.50;;;;;;4164440;28;20049;-54
2021/08/27 04:35:05;;;;;;;10.23;7.47;;;24.20;49.60;;;;;;4164540;28;20057;-54
2021/08/27 04:37:08;;;;;;;12.13;9.30;;;24.20;49.70;;;;;;4164618;28;20041;-54
2021/08/27 04:39:10;;;;;;;11.35;7.40;;;24.20;49.70;;;;;;4164569;28;20073;-53
2021/08/27 04:41:12;;;;;;;18.48;8.45;;;24.20;49.70;;;;;;4164567;28;20052;-53
2021/08/27 04:43:14;;;;;;;11.90;8.15;;;24.20;49.80;;;;;;4164749;28;20077;-54
2021/08/27 04:45:16;;;;;;;17.55;8.98;;;24.20;49.70;;;;;;4164393;28;20046;-54
2021/08/27 04:47:18;;;;;;;9.93;7.53;;;24.20;49.80;;;;;;4164608;28;20140;-54
2021/08/27 04:49:22;;;;;;;11.25;7.25;;;24.20;49.90;;;;;;4164162;28;20102;-54
2021/08/27 04:51:24;;;;;;;12.95;7.53;;;24.20;49.90;;;;;;4164488;28;20048;-55
2021/08/27 04:53:26;;;;;;;10.52;7.40;;;24.20;49.90;;;;;;4164300;28;20037;-55
2021/08/27 04:55:28;;;;;;;10.38;6.70;;;24.20;49.90;;;;;;4164544;28;20145;-54
2021/08/27 04:57:30;;;;;;;15.90;6.75;;;24.20;49.90;;;;;;4164119;28;20038;-54
2021/08/27 04:59:32;;;;;;;10.82;7.25;;;24.20;50.00;;;;;;4164101;28;20038;-55
2021/08/27 05:01:34;;;;;;;9.15;6.55;;;24.30;50.10;;;;;;4164283;28;20056;-54
2021/08/27 05:03:37;;;;;;;9.52;7.22;;;24.20;50.20;;;;;;4164206;28;20107;-54
2021/08/27 05:05:39;;;;;;;9.23;6.70;;;24.30;50.20;;;;;;4164491;28;20105;-53
2021/08/27 05:07:41;;;;;;;13.18;7.20;;;24.30;50.30;;;;;;4164377;28;20097;-56
2021/08/27 05:09:43;;;;;;;15.98;6.45;;;24.30;50.50;;;;;;4164261;28;20048;-56
2021/08/27 05:11:45;;;;;;;13.82;7.20;;;24.30;50.80;;;;;;4164324;28;20057;-57
2021/08/27 05:13:47;;;;;;;13.10;7.35;;;24.30;50.60;;;;;;4164131;28;20046;-57
2021/08/27 05:15:49;;;;;;;12.13;7.80;;;24.30;50.70;;;;;;4164172;28;20050;-57
2021/08/27 05:17:52;;;;;;;11.48;7.50;;;24.30;50.70;;;;;;4164337;28;20038;-57
2021/08/27 05:19:54;;;;;;;16.70;8.85;;;24.30;50.80;;;;;;4164228;28;20097;-57
2021/08/27 05:21:58;;;;;;;13.60;8.80;;;24.30;50.90;;;;;;4164223;28;20094;-57
2021/08/27 05:24:01;;;;;;;13.82;8.60;;;24.30;50.90;;;;;;4164115;28;20077;-57
2021/08/27 05:26:04;;;;;;;11.85;7.90;;;24.30;50.90;;;;;;4164187;28;20128;-57
2021/08/27 05:28:06;;;;;;;13.13;8.15;;;24.40;51.00;;;;;;4164129;28;20097;-56
2021/08/27 05:30:10;;;;;;;17.35;9.32;;;24.40;50.90;;;;;;4164190;28;20052;-57
2021/08/27 05:32:12;;;;;;;15.55;9.13;;;24.40;51.00;;;;;;4164146;28;20056;-57
2021/08/27 05:34:14;;;;;;;26.92;9.48;;;24.40;51.00;;;;;;4164086;28;20045;-57
2021/08/27 05:36:16;;;;;;;20.73;8.93;;;24.40;51.10;;;;;;4164036;28;20072;-57
2021/08/27 05:38:18;;;;;;;18.58;8.85;;;24.40;51.10;;;;;;4179680;28;20041;-57
2021/08/27 05:40:19;;;;;;;16.23;9.52;;;24.40;51.10;;;;;;4163933;28;20053;-57
2021/08/27 05:42:22;;;;;;;24.90;9.77;;;24.40;51.10;;;;;;4164148;28;20044;-57
2021/08/27 05:44:24;;;;;;;23.35;9.93;;;24.40;51.10;;;;;;4163816;28;20064;-56
2021/08/27 05:46:26;;;;;;;21.08;12.60;;;24.40;51.10;;;;;;4163773;28;20804;-57
2021/08/27 05:48:29;;;;;;;21.35;12.68;;;24.40;51.10;;;;;;4163661;28;20052;-57
2021/08/27 05:50:31;;;;;;;23.75;11.15;;;24.40;51.10;;;;;;4163889;28;20048;-57
2021/08/27 05:52:33;;;;;;;22.30;11.68;;;24.40;51.20;;;;;;4164117;28;20109;-57
2021/08/27 05:54:35;;;;;;;27.50;12.50;;;24.40;51.20;;;;;;4163986;28;20057;-57
2021/08/27 05:56:37;;;;;;;17.45;9.80;;;24.40;51.20;;;;;;4164016;28;20074;-57
2021/08/27 05:58:39;;;;;;;22.15;10.60;;;24.40;51.30;;;;;;4164012;28;20125;-57
2021/08/27 06:00:41;;;;;;;21.38;9.40;;;24.40;51.20;;;;;;4163812;28;20041;-57
2021/08/27 06:02:44;;;;;;;19.48;8.55;;;24.40;51.30;;;;;;4163814;28;20073;-57
2021/08/27 06:04:46;;;;;;;21.00;8.90;;;24.40;51.30;;;;;;4164030;28;20125;-57
2021/08/27 06:06:49;;;;;;;17.52;7.93;;;24.40;51.40;;;;;;4163811;28;20101;-57
2021/08/27 06:08:52;;;;;;;26.55;8.93;;;24.40;51.40;;;;;;4163796;28;20073;-57
2021/08/27 06:10:53;;;;;;;45.63;10.38;;;24.40;51.40;;;;;;4166857;28;20101;-57
2021/08/27 06:12:55;;;;;;;24.88;10.75;;;24.50;51.40;;;;;;4165861;28;20109;-57
2021/08/27 06:14:58;;;;;;;33.38;9.75;;;24.40;51.60;;;;;;4166692;28;20037;-56
2021/08/27 06:17:00;;;;;;;14.57;8.80;;;24.40;51.60;;;;;;4166659;28;20102;-57
2021/08/27 06:19:04;;;;;;;20.88;10.27;;;24.40;51.70;;;;;;4166615;28;20042;-57
2021/08/27 06:21:06;;;;;;;35.20;13.77;;;24.40;51.70;;;;;;4166696;28;20041;-57
2021/08/27 06:23:08;;;;;;;31.83;12.52;;;24.50;51.80;;;;;;4166489;28;20046;-57
2021/08/27 06:25:10;;;;;;;33.40;12.00;;;24.50;51.70;;;;;;4166580;28;20081;-56
2021/08/27 06:27:12;;;;;;;25.05;11.75;;;24.50;51.70;;;;;;4166574;28;20042;-57
2021/08/27 06:29:16;;;;;;;17.05;9.88;;;24.50;51.70;;;;;;4166571;28;20072;-56
2021/08/27 06:31:18;;;;;;;26.23;11.25;;;24.50;51.80;;;;;;4166488;28;20050;-57
2021/08/27 06:33:20;;;;;;;24.52;9.75;;;24.50;51.70;;;;;;4166109;28;20105;-57
2021/08/27 06:35:22;;;;;;;17.73;9.43;;;24.60;51.70;;;;;;4166221;28;20144;-57
2021/08/27 06:38:21;;;;;;;16.83;9.57;;;24.60;51.70;;;;;;4166286;28;20042;-56
2021/08/27 06:39:46;;;;;;;15.80;9.07;;;24.50;51.70;;;;;;4166520;28;20042;-57
2021/08/27 06:41:48;;;;;;;17.60;8.77;;;24.60;51.70;;;;;;4166302;28;20805;-56
2021/08/27 06:43:51;;;;;;;15.35;9.27;;;24.60;51.90;;;;;;4166050;28;20037;-57
2021/08/27 06:45:57;;;;;;;13.95;8.52;;;24.60;51.80;;;;;;4166234;28;20038;-57
2021/08/27 06:47:59;;;;;;;14.40;7.25;;;24.70;51.90;;;;;;4166122;28;20133;-57
2021/08/27 06:50:02;;;;;;;13.38;6.75;;;24.60;51.90;;;;;;4166179;28;20038;-57
2021/08/27 06:52:04;;;;;;;11.63;7.00;;;24.70;52.00;;;;;;4166171;28;20048;-56
2021/08/27 06:54:06;;;;;;;13.57;6.82;;;24.70;52.10;;;;;;4166204;28;20046;-57
2021/08/27 06:56:08;;;;;;;10.48;6.40;;;24.60;52.10;;;;;;4166145;28;20056;-57
2021/08/27 06:58:10;;;;;;;13.88;6.95;;;24.60;52.10;;;;;;4165968;28;20065;-57
2021/08/27 07:00:13;;;;;;;11.23;6.80;;;24.70;52.10;;;;;;4165951;28;20065;-57
2021/08/27 07:02:15;;;;;;;9.70;6.40;;;24.70;52.00;;;;;;4165930;28;20116;-57
2021/08/27 07:04:17;;;;;;;10.88;6.45;;;24.70;52.20;;;;;;4165959;28;20052;-57
2021/08/27 07:06:20;;;;;;;8.40;6.63;;;24.70;52.10;;;;;;4166067;28;20069;-57
2021/08/27 07:08:22;;;;;;;10.57;6.38;;;24.70;52.10;;;;;;4165884;28;20045;-56
2021/08/27 07:10:25;;;;;;;7.50;6.05;;;24.70;52.20;;;;;;4165883;28;20507;-57
2021/08/27 07:12:27;;;;;;;8.90;6.13;;;24.70;52.30;;;;;;4165824;28;20045;-58
2021/08/27 07:14:29;;;;;;;9.55;5.50;;;24.70;52.30;;;;;;4165753;28;20045;-58
2021/08/27 07:16:32;;;;;;;8.00;6.28;;;24.70;52.40;;;;;;4181307;28;20069;-58
2021/08/27 07:18:34;;;;;;;16.00;7.25;;;24.70;52.40;;;;;;4165694;28;20069;-57
2021/08/27 07:20:37;;;;;;;9.23;6.85;;;24.80;52.30;;;;;;4165617;28;20098;-57
2021/08/27 07:22:40;;;;;;;9.38;5.97;;;24.80;52.20;;;;;;4165647;28;20097;-58
2021/08/27 07:24:42;;;;;;;9.10;5.93;;;24.80;52.20;;;;;;4165536;28;20097;-56
2021/08/27 07:26:45;;;;;;;15.15;7.00;;;24.70;52.20;;;;;;4165626;28;20054;-54
2021/08/27 07:28:48;;;;;;;12.48;6.45;;;24.80;52.30;;;;;;4165694;28;20038;-54
2021/08/27 07:30:50;;;;;;;15.93;6.93;;;24.80;52.00;;;;;;4165506;28;20129;-55
2021/08/27 07:32:52;;;;;;;10.43;6.57;;;24.80;52.30;;;;;;4165410;28;20053;-54
2021/08/27 07:34:54;;;;;;;9.00;6.43;;;24.80;52.60;;;;;;4165306;28;20058;-55
2021/08/27 07:36:56;;;;;;;12.82;6.38;;;24.90;52.60;;;;;;4165429;28;20045;-56
2021/08/27 07:38:58;;;;;;;11.27;6.10;;;24.90;52.90;;;;;;4165440;28;20041;-54
2021/08/27 07:41:00;;;;;;;8.20;5.43;;;24.90;52.90;;;;;;4165477;28;20567;-56
2021/08/27 07:43:02;;;;;;;8.73;4.93;;;24.90;52.80;;;;;;4165046;28;20052;-56
2021/08/27 07:45:05;;;;;;;9.80;5.07;;;24.90;52.90;;;;;;4165055;28;20088;-55
2021/08/27 07:47:07;;;;;;;10.18;4.82;;;24.90;52.80;;;;;;4165137;28;20101;-53
2021/08/27 07:49:09;;;;;;;8.85;5.53;;;24.90;52.80;;;;;;4165225;28;20056;-54
2021/08/27 07:51:10;;;;;;;7.13;5.32;;;24.90;52.80;;;;;;4165286;28;20063;-54
2021/08/27 07:53:12;;;;;;;10.15;5.18;;;25.00;52.80;;;;;;4165218;28;20097;-54
2021/08/27 07:55:14;;;;;;;7.40;5.00;;;25.00;52.60;;;;;;4165123;28;20048;-55
2021/08/27 07:57:16;;;;;;;5.85;3.78;;;24.90;52.80;;;;;;4165373;28;20041;-51
2021/08/27 07:59:18;;;;;;;5.28;4.15;;;25.00;53.00;;;;;;4166017;28;20500;-46
2021/08/27 08:01:20;;;;;;;16.48;6.85;;;25.00;53.30;;;;;;4166094;28;20045;-45
2021/08/27 08:03:23;;;;;;;8.32;4.68;;;24.90;54.50;;;;;;4166042;28;20042;-46
2021/08/27 08:05:26;;;;;;;7.10;4.50;;;24.90;53.60;;;;;;4165492;28;20070;-46
2021/08/27 08:07:28;;;;;;;8.93;4.20;;;24.90;53.70;;;;;;4166472;28;20109;-46
2021/08/27 08:09:30;;;;;;;5.53;3.90;;;24.90;53.90;;;;;;4166403;28;20068;-47
2021/08/27 08:11:32;;;;;;;13.40;11.15;;;24.90;53.70;;;;;;4165727;28;20072;-52
2021/08/27 08:13:35;;;;;;;11.60;7.88;;;24.90;55.00;;;;;;4162503;28;20127;-45
2021/08/27 08:15:37;;;;;;;11.32;7.10;;;24.90;54.80;;;;;;4164704;28;20069;-54
2021/08/27 08:17:39;;;;;;;10.93;7.75;;;24.90;54.50;;;;;;4164760;28;20441;-55
2021/08/27 08:19:41;;;;;;;19.42;12.88;;;24.90;54.30;;;;;;4164931;28;20045;-53
2021/08/27 08:21:43;;;;;;;16.02;11.30;;;24.90;55.30;;;;;;4163985;28;20041;-51
2021/08/27 08:23:46;;;;;;;6.40;5.65;;;24.90;55.40;;;;;;4164987;28;20046;-53
2021/08/27 08:25:48;;;;;;;12.65;8.25;;;24.90;54.50;;;;;;4165106;28;20469;-56
2021/08/27 08:27:50;;;;;;;10.70;7.53;;;24.90;54.70;;;;;;4164849;28;20073;-54
2021/08/27 08:29:52;;;;;;;12.73;8.35;;;25.00;54.70;;;;;;4164656;28;20125;-50
2021/08/27 08:31:54;;;;;;;7.60;6.80;;;25.00;54.90;;;;;;4164313;28;20045;-46
2021/08/27 08:33:56;;;;;;;9.40;6.68;;;25.00;54.90;;;;;;4164722;28;20041;-51
2021/08/27 08:35:58;;;;;;;10.63;7.05;;;25.00;54.70;;;;;;4164902;28;20097;-51
2021/08/27 08:38:00;;;;;;;10.27;7.13;;;25.00;54.50;;;;;;4164749;28;20101;-49
2021/08/27 08:40:03;;;;;;;10.23;6.90;;;25.00;54.80;;;;;;4164589;28;20040;-49
2021/08/27 08:42:05;;;;;;;6.95;6.25;;;25.00;54.70;;;;;;4163492;28;20105;-50
2021/08/27 08:44:07;;;;;;;9.45;7.60;;;25.00;54.50;;;;;;4164141;28;20085;-51
2021/08/27 08:46:10;;;;;;;7.20;6.03;;;24.90;55.00;;;;;;4164619;28;20041;-52
2021/08/27 08:48:17;;;;;;;9.80;6.68;;;25.00;54.70;;;;;;4164713;28;20048;-51
2021/08/27 08:50:19;;;;;;;9.18;6.88;;;25.00;54.50;;;;;;4164565;28;20049;-48
2021/08/27 08:52:24;;;;;;;10.13;6.15;;;25.00;54.60;;;;;;4164402;28;20105;-54
2021/08/27 08:54:26;;;;;;;9.65;5.80;;;25.10;54.40;;;;;;4164482;28;20042;-52
2021/08/27 08:56:28;;;;;;;9.70;5.32;;;25.10;54.40;;;;;;4164526;28;20038;-50
2021/08/27 08:58:31;;;;;;;9.68;5.95;;;25.00;54.40;;;;;;4164337;28;20110;-57
2021/08/27 09:00:36;;;;;;;5.57;4.53;;;25.10;54.40;;;;;;4164576;28;20042;-57
2021/08/27 09:02:38;;;;;;;5.10;4.40;;;25.20;54.10;;;;;;4164514;28;20042;-57
2021/08/27 09:04:41;;;;;;;4.18;3.78;;;25.20;53.90;;;;;;4164555;28;20066;-57
2021/08/27 09:06:43;;;;;;;6.53;4.30;;;25.30;53.80;;;;;;4164504;28;20101;-55
2021/08/27 09:08:46;;;;;;;8.77;4.65;;;25.30;53.70;;;;;;4164423;28;20045;-54
2021/08/27 09:10:48;;;;;;;7.20;4.30;;;25.40;53.50;;;;;;4165029;28;20046;-56
2021/08/27 09:12:51;;;;;;;4.47;3.72;;;25.40;53.40;;;;;;4164772;28;20050;-56
2021/08/27 09:15:20;;;;;;;5.43;3.33;;;25.40;53.30;;;;;;4164284;28;20062;-52
2021/08/27 09:17:30;;;;;;;6.70;4.88;;;25.40;53.30;;;;;;4164314;28;20054;-49
2021/08/27 09:19:53;;;;;;;12.55;6.00;;;25.40;53.60;;;;;;4165250;28;20049;-52
2021/08/27 09:21:55;;;;;;;6.65;5.75;;;25.30;54.10;;;;;;4165608;28;20457;-51
2021/08/27 09:24:13;;;;;;;14.65;5.78;;;25.30;54.00;;;;;;4165099;28;20044;-50
2021/08/27 09:26:46;;;;;;;6.32;5.35;;;25.20;53.70;;;;;;4164554;28;20048;-53
2021/08/27 09:28:48;;;;;;;9.23;5.60;;;25.20;53.80;;;;;;4150319;28;20125;-54
2021/08/27 09:30:50;;;;;;;7.47;5.95;;;25.20;54.00;;;;;;4164611;28;20072;-48
2021/08/27 09:32:54;;;;;;;8.93;5.88;;;25.20;54.10;;;;;;4164138;28;20100;-46
2021/08/27 09:35:16;;;;;;;6.35;5.65;;;25.20;54.20;;;;;;4164118;28;20046;-52
2021/08/27 09:37:18;;;;;;;22.35;6.72;;;25.20;54.00;;;;;;4164594;28;20041;-47
2021/08/27 09:39:34;;;;;;;9.93;6.93;;;25.20;54.30;;;;;;4164674;28;20098;-49
2021/08/27 09:41:36;;;;;;;20.90;6.57;;;25.20;54.10;;;;;;4164854;28;20061;-48
2021/08/27 09:43:42;;;;;;;10.88;6.57;;;25.20;53.90;;;;;;4165716;28;20056;-52
2021/08/27 09:45:45;;;;;;;13.10;6.57;;;25.20;54.80;;;;;;4168302;28;20042;-51
2021/08/27 09:48:03;;;;;;;19.23;7.38;;;25.20;54.80;;;;;;4168236;28;20054;-49
2021/08/27 09:50:22;;;;;;;11.30;7.45;;;25.10;55.60;;;;;;4168100;28;20041;-48
2021/08/27 09:52:24;;;;;;;10.88;6.95;;;25.00;55.90;;;;;;4167964;28;20054;-53
2021/08/27 09:54:27;;;;;;;31.50;8.45;;;25.10;55.20;;;;;;4168018;28;20045;-56
2021/08/27 09:56:43;;;;;;;19.45;7.40;;;24.90;56.40;;;;;;4167090;28;20046;-54
2021/08/27 09:58:53;;;;;;;12.45;7.18;;;25.10;55.70;;;;;;4166990;28;20049;-53
2021/08/27 10:01:06;;;;;;;8.88;6.78;;;25.20;55.50;;;;;;4167040;28;20093;-56
2021/08/27 10:03:25;;;;;;;15.52;7.60;;;25.20;55.20;;;;;;4167127;28;20041;-56
2021/08/27 10:05:37;;;;;;;13.52;8.43;;;25.30;54.30;;;;;;4166942;28;20136;-56
2021/08/27 10:07:41;;;;;;;9.35;8.05;;;25.30;54.90;;;;;;4167084;28;20049;-56
2021/08/27 10:09:46;;;;;;;8.77;7.05;;;25.30;54.40;;;;;;4166777;28;20105;-55
2021/08/27 10:11:58;;;;;;;12.18;8.30;;;25.30;54.60;;;;;;4166939;28;20046;-54
2021/08/27 10:14:00;;;;;;;9.63;7.68;;;25.40;54.30;;;;;;4167028;28;20077;-52
2021/08/27 10:16:03;;;;;;;11.65;8.13;;;25.40;54.40;;;;;;4166763;28;20053;-50
2021/08/27 10:18:08;;;;;;;9.32;8.07;;;25.40;54.30;;;;;;4166678;28;20068;-55
2021/08/27 10:20:11;;;;;;;10.57;8.18;;;25.40;54.50;;;;;;4166618;28;20044;-55
2021/08/27 10:22:13;;;;;;;10.25;7.75;;;25.30;54.60;;;;;;4168172;28;20065;-56
2021/08/27 10:24:15;;;;;;;12.07;7.82;;;25.40;54.60;;;;;;4168111;28;20098;-55
2021/08/27 10:26:20;;;;;;;13.15;7.90;;;25.30;55.00;;;;;;4167248;28;20103;-57
2021/08/27 10:28:29;;;;;;;10.20;7.95;;;25.40;55.00;;;;;;4168314;28;20101;-57
2021/08/27 10:30:58;;;;;;;11.73;7.68;;;25.30;55.00;;;;;;4168331;28;20075;-57
2021/08/27 10:33:00;;;;;;;15.68;7.68;;;25.30;55.00;;;;;;4167495;28;20081;-57
2021/08/27 10:35:02;;;;;;;9.90;7.82;;;25.40;54.70;;;;;;4168270;28;20065;-57
2021/08/27 10:37:05;;;;;;;12.35;8.05;;;25.40;54.80;;;;;;4167369;28;20042;-58
2021/08/27 10:39:07;;;;;;;10.82;8.10;;;25.40;54.80;;;;;;4166635;28;20097;-55
2021/08/27 10:41:20;;;;;;;10.48;7.72;;;25.50;54.60;;;;;;4166561;28;20052;-56